Voreifelwetter - Wetterstation Drove - Standort 5043'47" - 0630'49"
Wetterdaten: aktuell Donnerstag, 26.05.2022 20:15
Datum Zeit Temp. A. Feuchte A. Luftdruck Regen Wind Richtung Richtung Sonnenschein Helligkeit Taupunkt Windchill
26.05.2022 20:15 18,7 C 62 % 1018,2 hPa 0,0 mm 31,0 km/h (5 Bft) NW45 315 0 min 7,70 klux 11,3 C 18,7 C
26.05.2022 20:00 18,9 C 61 % 1018,2 hPa 0,0 mm 29,0 km/h (5 Bft) NW45 320 0 min 9,7 klux 11,2 C 18,9 C
26.05.2022 19:45 19,3 C 61 % 1018,2 hPa 0,0 mm 24,8 km/h (4 Bft) NW45 315 0 min 11,6 klux 11,6 C 19,3 C
26.05.2022 19:30 19,7 C 60 % 1018,1 hPa 0,0 mm 29,4 km/h (5 Bft) N-NW67.5 330 15 min 27,4 klux 11,7 C 19,7 C
26.05.2022 19:15 20,0 C 59 % 1018,1 hPa 0,0 mm 23,3 km/h (4 Bft) NW45 315 15 min 27,8 klux 11,7 C 20,0 C
26.05.2022 19:00 20,2 C 58 % 1018,1 hPa 0,0 mm 21,1 km/h (4 Bft) W-NW67.5 290 0 min 25,0 klux 11,7 C 20,2 C
26.05.2022 18:45 20,4 C 56 % 1018,1 hPa 0,0 mm 24,0 km/h (4 Bft) NW67.5 310 0 min 24,9 klux 11,3 C 20,4 C
26.05.2022 18:30 20,6 C 55 % 1018,1 hPa 0,0 mm 28,2 km/h (4 Bft) NW45 325 0 min 32,4 klux 11,2 C 20,6 C
26.05.2022 18:15 21,2 C 53 % 1019,0 hPa 0,0 mm 32,0 km/h (5 Bft) NW45 325 15 min 38,2 klux 11,2 C 21,2 C
26.05.2022 18:00 21,7 C 53 % 1019,0 hPa 0,0 mm 31,8 km/h (5 Bft) N-NW22.5 330 15 min 41,7 klux 11,7 C 21,7 C
26.05.2022 17:45 21,8 C 52 % 1019,0 hPa 0,0 mm 36,4 km/h (5 Bft) N-NW22.5 330 15 min 49,6 klux 11,5 C 21,8 C
26.05.2022 17:30 22,4 C 49 % 1018,9 hPa 0,0 mm 30,0 km/h (5 Bft) NW45 320 15 min 61,0 klux 11,2 C 22,4 C
26.05.2022 17:15 22,2 C 51 % 1019,0 hPa 0,0 mm 28,3 km/h (4 Bft) N-NW22.5 335 15 min 67,6 klux 11,6 C 22,2 C
26.05.2022 17:00 22,1 C 51 % 1019,0 hPa 0,0 mm 19,5 km/h (3 Bft) NW67.5 310 15 min 68,8 klux 11,5 C 22,1 C
26.05.2022 16:45 22,3 C 51 % 1019,0 hPa 0,0 mm 22,5 km/h (4 Bft) NW45 325 15 min 74,7 klux 11,7 C 22,3 C
26.05.2022 16:30 22,2 C 49 % 1019,0 hPa 0,0 mm 33,6 km/h (5 Bft) NW22.5 320 15 min 79,3 klux 11,0 C 22,2 C
26.05.2022 16:15 22,1 C 51 % 1019,0 hPa 0,0 mm 27,7 km/h (4 Bft) N-NW22.5 340 15 min 81,3 klux 11,5 C 22,1 C
26.05.2022 16:00 21,6 C 50 % 1019,0 hPa 0,0 mm 18,9 km/h (3 Bft) NW45 325 15 min 83,7 klux 10,7 C 21,6 C
26.05.2022 15:45 21,8 C 51 % 1019,0 hPa 0,0 mm 31,3 km/h (5 Bft) N-NW67.5 330 15 min 85,3 klux 11,2 C 21,8 C
26.05.2022 15:30 21,6 C 53 % 1019,0 hPa 0,0 mm 24,1 km/h (4 Bft) NW45 325 15 min 89,6 klux 11,6 C 21,6 C
26.05.2022 15:15 21,5 C 50 % 1019,0 hPa 0,0 mm 25,5 km/h (4 Bft) NW67.5 320 15 min 88,6 klux 10,6 C 21,5 C
26.05.2022 15:00 21,6 C 53 % 1020,0 hPa 0,0 mm 22,2 km/h (4 Bft) N-NW22.5 335 15 min 100 klux 11,6 C 21,6 C
26.05.2022 14:45 20,8 C 52 % 1020,1 hPa 0,0 mm 22,1 km/h (4 Bft) NW45 315 15 min 93,5 klux 10,6 C 20,8 C
26.05.2022 14:29 20,4 C 54 % 1020,1 hPa 0,0 mm 27,6 km/h (4 Bft) N-NW45 335 14 min 98,0 klux 10,8 C 20,4 C
26.05.2022 14:15 19,9 C 57 % 1020,2 hPa 0,0 mm 18,8 km/h (3 Bft) NW22.5 325 15 min 86,6 klux 11,1 C 19,9 C
26.05.2022 14:00 20,6 C 53 % 1020,1 hPa 0,0 mm 28,3 km/h (4 Bft) N-NW67.5 330 15 min 90,7 klux 10,7 C 20,6 C
26.05.2022 13:45 20,5 C 53 % 1020,1 hPa 0,0 mm 28,7 km/h (4 Bft) NW45 325 15 min 99,0 klux 10,6 C 20,5 C
26.05.2022 13:30 20,5 C 53 % 1020,1 hPa 0,0 mm 26,6 km/h (4 Bft) N-NW22.5 330 15 min 103 klux 10,6 C 20,5 C
26.05.2022 13:15 20,1 C 56 % 1020,1 hPa 0,0 mm 27,3 km/h (4 Bft) N-NW45 335 15 min 98,6 klux 11,0 C 20,1 C
26.05.2022 13:00 20,5 C 59 % 1020,1 hPa 0,0 mm 25,6 km/h (4 Bft) N-NW22.5 335 15 min 98,8 klux 12,2 C 20,5 C
26.05.2022 12:45 19,7 C 58 % 1020,2 hPa 0,0 mm 28,0 km/h (4 Bft) NW45 320 15 min 93,1 klux 11,2 C 19,7 C
26.05.2022 12:30 20,1 C 57 % 1020,1 hPa 0,0 mm 30,8 km/h (5 Bft) NW67.5 315 15 min 96,4 klux 11,3 C 20,1 C
26.05.2022 12:15 19,6 C 61 % 1020,2 hPa 0,0 mm 27,5 km/h (4 Bft) N-NW22.5 340 15 min 88,6 klux 11,9 C 19,6 C
26.05.2022 12:00 19,1 C 60 % 1020,2 hPa 0,0 mm 27,0 km/h (4 Bft) N-NW45 330 15 min 98,4 klux 11,1 C 19,1 C
26.05.2022 11:45 19,4 C 61 % 1020,2 hPa 0,0 mm 22,6 km/h (4 Bft) W-NW45 300 15 min 89,6 klux 11,7 C 19,4 C
26.05.2022 11:30 19,1 C 61 % 1020,2 hPa 0,0 mm 21,3 km/h (4 Bft) NW67.5 315 15 min 91,3 klux 11,4 C 19,1 C
26.05.2022 11:15 18,6 C 65 % 1019,2 hPa 0,0 mm 29,1 km/h (5 Bft) N-NW45 330 15 min 87,1 klux 11,9 C 18,6 C
26.05.2022 11:00 18,1 C 65 % 1019,3 hPa 0,0 mm 17,8 km/h (3 Bft) NW45 315 15 min 76,3 klux 11,4 C 18,1 C
26.05.2022 10:45 17,5 C 67 % 1019,3 hPa 0,0 mm 20,1 km/h (4 Bft) W-NW67.5 300 0 min 41,6 klux 11,3 C 17,5 C
26.05.2022 10:30 17,4 C 73 % 1019,3 hPa 0,0 mm 20,6 km/h (4 Bft) N-NW22.5 330 15 min 82,1 klux 12,5 C 17,4 C
26.05.2022 10:15 17,2 C 74 % 1019,3 hPa 0,0 mm 18,2 km/h (3 Bft) NW22.5 325 15 min 62,4 klux 12,5 C 17,2 C
26.05.2022 10:00 16,7 C 76 % 1019,4 hPa 0,0 mm 20,6 km/h (4 Bft) NW45 325 15 min 74,3 klux 12,4 C 16,7 C
26.05.2022 09:45 15,6 C 81 % 1019,4 hPa 0,0 mm 12,6 km/h (3 Bft) W-NW45 295 0 min 31,4 klux 12,3 C 15,6 C
26.05.2022 09:30 15,1 C 81 % 1019,5 hPa 0,0 mm 14,3 km/h (3 Bft) W-NW67.5 300 0 min 25,4 klux 11,9 C 15,1 C
26.05.2022 09:15 15,3 C 80 % 1019,5 hPa 0,0 mm 27,3 km/h (4 Bft) N-NW45 340 0 min 29,6 klux 11,9 C 15,3 C
26.05.2022 09:00 15,0 C 81 % 1019,5 hPa 0,0 mm 10,7 km/h (2 Bft) NW45 325 0 min 20,1 klux 11,8 C 15,0 C
26.05.2022 08:45 14,5 C 81 % 1018,5 hPa 0,0 mm 12,1 km/h (2 Bft) NW45 305 0 min 14,6 klux 11,3 C 14,5 C
26.05.2022 08:30 14,8 C 80 % 1018,5 hPa 0,0 mm 16,1 km/h (3 Bft) NW45 310 0 min 12,0 klux 11,4 C 14,8 C
26.05.2022 08:15 15,4 C 76 % 1018,4 hPa 0,0 mm 20,7 km/h (4 Bft) NW45 325 0 min 15,2 klux 11,2 C 15,4 C
26.05.2022 08:00 16,7 C 73 % 1018,3 hPa 0,0 mm 24,1 km/h (4 Bft) N-NW22.5 330 15 min 41,2 klux 11,8 C 16,7 C
26.05.2022 07:45 15,4 C 77 % 1018,4 hPa 0,0 mm 17,8 km/h (3 Bft) NW67.5 315 15 min 32,9 klux 11,4 C 15,4 C
26.05.2022 07:30 15,2 C 76 % 1018,5 hPa 0,0 mm 25,8 km/h (4 Bft) NW45 320 15 min 23,7 klux 11,0 C 15,2 C
26.05.2022 07:15 15,6 C 77 % 1017,4 hPa 0,0 mm 18,7 km/h (3 Bft) NW45 320 15 min 23,6 klux 11,6 C 15,6 C
26.05.2022 07:00 14,4 C 79 % 1017,5 hPa 0,0 mm 18,0 km/h (3 Bft) NW45 320 0 min 15,3 klux 10,8 C 14,4 C
26.05.2022 06:45 14,2 C 79 % 1017,5 hPa 0,0 mm 16,1 km/h (3 Bft) NW22.5 325 0 min 10,6 klux 10,6 C 14,2 C
26.05.2022 06:30 14,0 C 80 % 1017,5 hPa 0,0 mm 17,2 km/h (3 Bft) NW45 320 0 min 3,42 klux 10,6 C 14,0 C
26.05.2022 06:15 13,8 C 80 % 1017,5 hPa 0,0 mm 16,2 km/h (3 Bft) NW45 320 0 min 2,43 klux 10,4 C 13,8 C
26.05.2022 06:00 13,8 C 79 % 1017,5 hPa 0,0 mm 22,5 km/h (4 Bft) NW45 315 0 min 931 lux 10,2 C 13,8 C
26.05.2022 05:45 13,8 C 79 % 1017,5 hPa 0,0 mm 14,4 km/h (3 Bft) NW22.5 315 0 min 538 lux 10,2 C 13,8 C
26.05.2022 05:30 13,9 C 79 % 1017,5 hPa 0,0 mm 20,5 km/h (4 Bft) NW45 310 0 min 183 lux 10,3 C 13,9 C
26.05.2022 05:15 14,0 C 79 % 1017,5 hPa 0,0 mm 22,6 km/h (4 Bft) W-NW67.5 285 0 min 49 lux 10,4 C 14,0 C
26.05.2022 05:00 13,9 C 79 % 1017,5 hPa 0,0 mm 15,8 km/h (3 Bft) NW45 305 0 min 0 lux 10,3 C 13,9 C
26.05.2022 04:45 14,0 C 79 % 1017,5 hPa 0,0 mm 19,4 km/h (3 Bft) NW45 305 0 min 0 lux 10,4 C 14,0 C
26.05.2022 04:30 13,9 C 79 % 1017,5 hPa 0,0 mm 21,3 km/h (4 Bft) NW45 310 0 min 0 lux 10,3 C 13,9 C
26.05.2022 04:15 13,9 C 78 % 1016,5 hPa 0,0 mm 17,5 km/h (3 Bft) W-NW67.5 295 0 min 0 lux 10,1 C 13,9 C
26.05.2022 04:00 13,6 C 78 % 1016,5 hPa 0,0 mm 14,2 km/h (3 Bft) W-NW67.5 295 0 min 0 lux 9,8 C 13,6 C
26.05.2022 03:45 13,7 C 77 % 1016,5 hPa 0,0 mm 15,3 km/h (3 Bft) W-NW45 300 0 min 0 lux 9,7 C 13,7 C
26.05.2022 03:30 13,9 C 77 % 1016,5 hPa 0,0 mm 19,2 km/h (3 Bft) W-NW67.5 300 0 min 0 lux 9,9 C 13,9 C
26.05.2022 03:15 13,7 C 78 % 1016,5 hPa 0,0 mm 16,0 km/h (3 Bft) W67.5 280 0 min 0 lux 9,9 C 13,7 C
26.05.2022 03:00 13,6 C 78 % 1016,5 hPa 0,0 mm 17,6 km/h (3 Bft) W-NW45 290 0 min 800 lux 9,8 C 13,6 C
26.05.2022 02:44 13,5 C 78 % 1016,5 hPa 0,0 mm 13,6 km/h (3 Bft) W67.5 275 0 min 0 lux 9,7 C 13,5 C
26.05.2022 02:30 13,5 C 78 % 1016,5 hPa 0,0 mm 14,3 km/h (3 Bft) W-SW45 240 0 min 0 lux 9,7 C 13,5 C
26.05.2022 02:15 13,8 C 76 % 1016,5 hPa 0,0 mm 22,3 km/h (4 Bft) W67.5 275 0 min 0 lux 9,6 C 13,8 C
26.05.2022 02:00 14,3 C 74 % 1017,5 hPa 0,0 mm 19,3 km/h (3 Bft) W-SW67.5 255 0 min 0 lux 9,7 C 14,3 C
26.05.2022 01:45 14,5 C 71 % 1016,5 hPa 0,0 mm 19,6 km/h (3 Bft) NW67.5 310 0 min 0 lux 9,3 C 14,5 C
26.05.2022 01:30 14,6 C 70 % 1016,5 hPa 0,0 mm 15,7 km/h (3 Bft) W-NW45 300 0 min 0 lux 9,2 C 14,6 C
26.05.2022 01:15 15,0 C 70 % 1016,4 hPa 0,0 mm 26,6 km/h (4 Bft) NW45 305 0 min 0 lux 9,6 C 15,0 C
26.05.2022 01:00 15,2 C 67 % 1016,4 hPa 0,0 mm 30,7 km/h (5 Bft) NW45 320 0 min 0 lux 9,1 C 15,2 C
26.05.2022 00:45 15,5 C 64 % 1016,4 hPa 0,0 mm 32,7 km/h (5 Bft) W-NW67.5 300 0 min 0 lux 8,7 C 15,5 C
26.05.2022 00:30 15,5 C 63 % 1016,4 hPa 0,0 mm 15,4 km/h (3 Bft) W-NW67.5 300 0 min 440 lux 8,5 C 15,5 C
26.05.2022 00:15 15,5 C 63 % 1016,4 hPa 0,0 mm 16,6 km/h (3 Bft) W-NW67.5 295 0 min 0 lux 8,5 C 15,5 C
26.05.2022 00:00 15,6 C 63 % 1016,4 hPa 0,0 mm 28,2 km/h (4 Bft) NW45 315 0 min 0 lux 8,6 C 15,6 C
_ Min-Zeit 02:30 16:30 00:00 - 09:00 - - - - 00:15 02:30
Minimum _ 13,5 C 49 % 1016,4 hPa - 10,7 km/h (2 Bft) - - - - 8,5 C 13,5 C
_ Max-Zeit 17:30 08:45 11:30 00:00 17:45 - - 07:15 13:30 10:15 17:30
Maximum _ 22,4 C 81 % 1020,2 hPa 0,0 mm 36,4 km/h
N-NW (5 Bft)
- - 15 min 103 klux 12,5 C 22,4 C
Durchschnitt _ 17,5 C 66 % 1018,4 hPa #0,0 mm 22,5 km/h (4 Bft) NW - #9:44 h 39,4 klux 10,9 C 17,5 C